Hub


Voltar

 INFORMAÇÕES METEOROLÓGICAS

METAR FOR KILG


ADDS - METARS form results

(0958 UTC 18 June 2019)
Data provider http://aviationweather.gov/metar/data/
 
METAR text: KILG 180951Z AUTO 12004KT 2SM BR OVC006 22/22 A2996 RMK AO2 SLP142 T02220222
Conditions at: KILG (WILMINGTON , DE, US) observed 0951 UTC 18 June 2019
Temperature: 22.2°C (72°F)
Dewpoint: 22.2°C (72°F) [RH = 100%]
Pressure (altimeter): 29.96 inches Hg (1014.6 mb)
[Sea-level pressure: 1014.2 mb]
Winds: from the ESE (120 degrees) at 5 MPH (4 knots; 2.1 m/s)
Visibility: 2.00 miles (3.22 km)
Ceiling: 600 feet AGL
Clouds: overcast cloud deck at 600 feet AGL
Weather: BR  (mist)

METAR text: KILG 180936Z 13003KT 2 1/2SM BR OVC006 22/22 A2995 RMK AO2 T02220217
Conditions at: KILG (WILMINGTON , DE, US) observed 0936 UTC 18 June 2019
Temperature: 22.2°C (72°F)
Dewpoint: 21.7°C (71°F) [RH = 97%]
Pressure (altimeter): 29.95 inches Hg (1014.3 mb)
Winds: from the SE (130 degrees) at 3 MPH (3 knots; 1.5 m/s)
Visibility: 2.50 miles (4.02 km)
Ceiling: 600 feet AGL
Clouds: overcast cloud deck at 600 feet AGL
Weather: BR  (mist)

METAR text: KILG 180921Z 13003KT 4SM BR BKN006 22/22 A2995 RMK AO2 T02220217
Conditions at: KILG (WILMINGTON , DE, US) observed 0921 UTC 18 June 2019
Temperature: 22.2°C (72°F)
Dewpoint: 21.7°C (71°F) [RH = 97%]
Pressure (altimeter): 29.95 inches Hg (1014.3 mb)
Winds: from the SE (130 degrees) at 3 MPH (3 knots; 1.5 m/s)
Visibility: 4 miles ( 6 km)
Ceiling: 600 feet AGL
Clouds: broken clouds at 600 feet AGL
Weather: BR  (mist)

METAR text: KILG 180912Z 11003KT 5SM BR SCT006 SCT110 22/22 A2994 RMK AO2 T02220217
Conditions at: KILG (WILMINGTON , DE, US) observed 0912 UTC 18 June 2019
Temperature: 22.2°C (72°F)
Dewpoint: 21.7°C (71°F) [RH = 97%]
Pressure (altimeter): 29.94 inches Hg (1014.0 mb)
Winds: from the ESE (110 degrees) at 3 MPH (3 knots; 1.5 m/s)
Visibility: 5 miles ( 8 km)
Ceiling: at least 12,000 feet AGL
Clouds: scattered clouds at 600 feet AGL
scattered clouds at 11000 feet AGL
Weather: BR  (mist)

Forecast for: KILG (WILMINGTON , DE, US)
Text: KILG 180947Z 1810/1906 14003KT 4SM BR OVC006
Forecast period: 1000 to 1400 UTC 18 June 2019
Forecast type: FROM: standard forecast or significant change
Winds: from the SE (140 degrees) at 3 MPH (3 knots; 1.5 m/s)
Visibility: 4 miles (6 km)
Ceiling: 600 feet AGL
Clouds: overcast cloud deck at 600 feet AGL
Weather: BR  (mist)
Text: TEMPO 1810/1813 2SM BR SCT006
Forecast period: 1000 to 1300 UTC 18 June 2019
Forecast type: TEMPORARY: The following changes expected for less than half the time period
Visibility: 2.00 miles (3.22 km)
Ceiling: at least 12,000 feet AGL
Clouds: scattered clouds at 600 feet AGL
Weather: BR  (mist)
Text: FM181400 15004KT 5SM -SHRA BR OVC025
Forecast period: 1400 to 2000 UTC 18 June 2019
Forecast type: FROM: standard forecast or significant change
Winds: from the SSE (150 degrees) at 5 MPH (4 knots; 2.1 m/s)
Visibility: 5 miles (8 km)
Ceiling: 2500 feet AGL
Clouds: overcast cloud deck at 2500 feet AGL
Weather: -SHRA BR  (light rain showers, mist)
Text: FM182000 21005KT P6SM SHRA VCTS BKN040CB
Forecast period: 2000 UTC 18 June 2019 to 0000 UTC 19 June 2019
Forecast type: FROM: standard forecast or significant change
Winds: from the SSW (210 degrees) at 6 MPH (5 knots; 2.6 m/s)
Visibility: 6 or more miles 10+ km)
Ceiling: 4000 feet AGL
Clouds: broken clouds at 4000 feet AGL
Weather: SHRA VCTS  (rain showers, thunderstorm in vicinity)
Text: FM190000 27005KT P6SM VCSH BKN040
Forecast period: 0000 to 0600 UTC 19 June 2019
Forecast type: FROM: standard forecast or significant change
Winds: from the W (270 degrees) at 6 MPH (5 knots; 2.6 m/s)
Visibility: 6 or more miles 10+ km)
Ceiling: 4000 feet AGL
Clouds: broken clouds at 4000 feet AGL
Weather: VCSH  (showers in vicinity)


 MAPA DO AEROPORTO


 INFORMAÇÕES DA PISTA

Pista 01 Tamanho da pista 7012 ft Largura da pista 150 ft
Elevação da pista 79 ft Ranhura da pista 0 ft Proa da pista 5
Pista 19 Tamanho da pista 7012 ft Largura da pista 150 ft
Elevação da pista 62 ft Ranhura da pista 0 ft Proa da pista 185
Pista 09 Tamanho da pista 7181 ft Largura da pista 150 ft
Elevação da pista 79 ft Ranhura da pista 0 ft Proa da pista 78
Pista 27 Tamanho da pista 7181 ft Largura da pista 150 ft
Elevação da pista 72 ft Ranhura da pista 0 ft Proa da pista 258
Pista 14 Tamanho da pista 4603 ft Largura da pista 150 ft
Elevação da pista 75 ft Ranhura da pista 0 ft Proa da pista 131
Pista 32 Tamanho da pista 4603 ft Largura da pista 150 ft
Elevação da pista 74 ft Ranhura da pista 0 ft Proa da pista 311

 FREQUÊNCIAS DO AEROPORTO

Tipo A/D Nome PHILADELPH Frequência 118.35 MHZ
Tipo ATIS Nome ATIS Frequência 123.95 MHZ
Tipo CLD Nome CLNC DEL Frequência 119.95 MHZ
Tipo CTAF Nome CTAF Frequência 126 MHZ
Tipo GND Nome GND Frequência 121.7 MHZ
Tipo OPS Nome ARNG OPS Frequência 46.9 MHZ
Tipo POST Nome WILMINGTON Frequência 34.3 MHZ
Tipo RDO Nome MILLVILLE Frequência 114 MHZ
Tipo TWR Nome WILMINGTON Frequência 126 MHZ
Tipo UNIC Nome UNICOM Frequência 122.95 MHZ

 AUXÍLIOS DE NAVEGAÇÃO PRÓXIMOS AO AEROPORTO

Tipo VORTAC Nome Dupont Frequência 114000 KHZ
Tipo NDB Nome Hadin Frequência 248 KHZ